Ana Sayfa
METAR-TAF:

METAR-TAF

Havaalanları :

Burley, Idaho, Amerika Birleşik Devletleri

Enlem: 42-32-33N, Boylam: 113-46-17W, yükseklik: 1265 m

Güncel hava durumu gözlemi

Rapor saat 08:53 UTC de 48 dakika önce yapıldı.
Rüzgar batı/kuzeybatıdan 3 kt
Sıcaklık 13°C
Nem 77%
Basınç 1017 hPa
Görüş mesafesi: 16.1 km
Açık gökyüzü

METAR: KBYI 180853Z AUTO 30003KT 10SM CLR 13/09 A3002 RMK AO2 SLP126 T01330094 55003

Saat: 03:41 (09:41 UTC)

Tahmin

Rapor saat 05:20 UTC de 4 saat ve 21 dakika önce yapıldı.
Ayın 18'si saat 06 UTC'den ayın 19'si saat 06 UTC'ye kadar geçerli Tahmin
Rüzgar batı/güneybatıdan 6 kt
Görüş mesafesi: 10 km
8000 ft yükseklikte az bulutlu
Ayın 18'si saat 1800 UTC'den
Rüzgar batıdan 13 kt ve 23 kt'a kadar ani rüzgarlar
Görüş mesafesi: 10 km
6000 ft yükseklikte az bulutlu

TAF: KBYI 180520Z 1806/1906 24006KT P6SM FEW080 FM181800 27013G23KT P6SM FEW060

4.000'den fazla havaalanı için hava durumu gözlemleri ve tahminleri (METAR ve TAF raporları).

Kullanılabilir istasyonlar harita üzerinde sarı ve kırmızı noktalarla gösterilir.

İstasyonun adını görmek için fareyi noktanın üzerinde gezdirin.

Sonrasında hava gözlem ve tahminlerini görmek için tıklayın.

Haritayı değiştirmek için: yaklaştırmak için siyah artı işaretli yeşil düğmeye ve uzaklaştırmak için de eksi işaretli düğmeye hızla tıklayın; bitişik haritalar için yeşil okları kullanın.


METAR-TAF: